createdAt,value
2022-12-01T04:41:37.313Z,101131.38
2022-12-01T04:44:40.602Z,101141.69
2022-12-01T04:47:43.426Z,101146.03
2022-12-01T04:50:49.362Z,101156.47
2022-12-01T04:53:51.882Z,101159.88
2022-12-01T04:56:54.781Z,101171.97
2022-12-01T04:59:57.401Z,101171.94
2022-12-01T05:03:00.721Z,101166.72
2022-12-01T05:06:05.200Z,101170.16
2022-12-01T05:09:14.290Z,101164.94
2022-12-01T05:12:19.738Z,101153.78
2022-12-01T05:15:22.426Z,101158.97
2022-12-01T05:18:24.984Z,101165.19
2022-12-01T05:21:27.907Z,101160.00
2022-12-01T05:24:30.699Z,101160.03
2022-12-01T05:27:33.626Z,101162.63
2022-12-01T05:30:36.466Z,101159.09
2022-12-01T05:33:39.191Z,101162.59
2022-12-01T05:36:42.094Z,101160.84
2022-12-01T05:39:47.292Z,101163.41
2022-12-01T05:42:50.040Z,101167.69
2022-12-01T05:45:55.429Z,101161.72
2022-12-01T05:48:58.127Z,101159.88
2022-12-01T05:52:03.056Z,101159.84
2022-12-01T05:55:07.434Z,101158.97
2022-12-01T05:58:10.709Z,101165.87
2022-12-01T06:01:13.212Z,101168.44
2022-12-01T06:04:16.024Z,101159.84
2022-12-01T06:07:18.713Z,101171.97
2022-12-01T06:10:21.645Z,101182.37
2022-12-01T06:13:24.372Z,101177.97
2022-12-01T06:16:27.139Z,101187.56
2022-12-01T06:19:29.720Z,101185.78
2022-12-01T06:22:32.576Z,101187.50
2022-12-01T06:25:35.116Z,101187.50
2022-12-01T06:28:38.111Z,101184.94
2022-12-01T06:31:40.868Z,101188.59
2022-12-01T06:34:46.551Z,101184.34
2022-12-01T06:37:49.507Z,101183.53
2022-12-01T06:40:52.306Z,101187.00
2022-12-01T06:43:54.856Z,101195.87
2022-12-01T06:46:57.897Z,101183.84
2022-12-01T06:50:00.803Z,101182.06
2022-12-01T06:53:04.572Z,101182.09
2022-12-01T06:56:07.556Z,101189.91
2022-12-01T06:59:13.137Z,101189.94
2022-12-01T07:02:17.025Z,101179.63
2022-12-01T07:05:20.230Z,101178.78
2022-12-01T07:08:22.938Z,101178.81
2022-12-01T07:11:25.758Z,101188.41
2022-12-01T07:14:28.536Z,101184.19
2022-12-01T07:17:31.496Z,101185.06
2022-12-01T07:20:34.228Z,101187.66
2022-12-01T07:23:37.098Z,101190.31
2022-12-01T07:26:41.281Z,101192.91
2022-12-01T07:29:44.183Z,101195.50
2022-12-01T07:32:46.749Z,101199.00
2022-12-01T07:35:49.508Z,101200.75
2022-12-01T07:38:52.092Z,101196.44
2022-12-01T07:41:57.018Z,101199.03
2022-12-01T07:44:59.473Z,101193.81
2022-12-01T07:48:04.600Z,101193.81
2022-12-01T07:51:10.540Z,101195.53
2022-12-01T07:54:17.632Z,101185.97
2022-12-01T07:57:20.575Z,101189.41
2022-12-01T08:00:23.383Z,101196.31
2022-12-01T08:03:26.286Z,101197.97
2022-12-01T08:06:28.883Z,101200.53
2022-12-01T08:09:31.673Z,101208.31
2022-12-01T08:12:34.797Z,101203.06
2022-12-01T08:15:42.962Z,101201.25
2022-12-01T08:18:46.121Z,101201.97
2022-12-01T08:21:49.144Z,101192.31
2022-12-01T08:24:52.470Z,101193.94
2022-12-01T08:27:55.867Z,101188.66
2022-12-01T08:30:58.790Z,101184.97
2022-12-01T08:34:04.633Z,101197.09
2022-12-01T08:37:07.216Z,101190.41
2022-12-01T08:40:10.421Z,101200.19
2022-12-01T08:43:23.201Z,101202.47
2022-12-01T08:46:36.808Z,101206.28
2022-12-01T08:49:39.350Z,101211.66
2022-12-01T08:52:42.427Z,101211.81
2022-12-01T08:55:44.914Z,101211.88
2022-12-01T08:58:48.642Z,101203.13
2022-12-01T09:01:52.753Z,101200.47
2022-12-01T09:04:55.739Z,101196.00
2022-12-01T09:08:17.329Z,101195.12
2022-12-01T09:11:25.460Z,101203.66
2022-12-01T09:14:28.199Z,101195.75
2022-12-01T09:17:31.026Z,101200.78
2022-12-01T09:20:33.784Z,101196.66
2022-12-01T09:23:36.782Z,101184.53
2022-12-01T09:26:39.422Z,101186.31
2022-12-01T09:29:42.252Z,101187.91
2022-12-01T09:32:45.166Z,101182.56
2022-12-01T09:35:48.097Z,101184.06
2022-12-01T09:38:51.170Z,101180.25
2022-12-01T09:42:30.875Z,101178.22
2022-12-01T09:45:42.874Z,101179.84
2022-12-01T09:48:48.458Z,101169.28
2022-12-01T09:51:53.919Z,101179.72
2022-12-01T09:54:59.295Z,101167.28
2022-12-01T09:58:05.144Z,101171.41
2022-12-01T10:01:17.154Z,101168.72
2022-12-01T10:04:45.483Z,101164.44
2022-12-01T10:07:55.066Z,101159.88
2022-12-01T10:11:16.527Z,101159.66
2022-12-01T10:14:21.138Z,101155.97
2022-12-01T10:17:42.583Z,101160.22
2022-12-01T10:21:11.367Z,101148.13
2022-12-01T10:24:45.149Z,101149.69
2022-12-01T10:27:53.727Z,101146.88
2022-12-01T10:31:08.273Z,101146.03
2022-12-01T10:34:22.410Z,101137.09
2022-12-01T10:37:28.250Z,101137.16
2022-12-01T10:40:35.181Z,101137.81
2022-12-01T10:43:43.374Z,101131.19
2022-12-01T10:46:52.076Z,101129.84
2022-12-01T10:49:55.114Z,101125.72
2022-12-01T10:52:57.585Z,101130.47
2022-12-01T10:56:10.091Z,101123.94
2022-12-01T10:59:27.170Z,101124.50
2022-12-01T11:02:33.744Z,101130.97
2022-12-01T11:05:41.128Z,101126.53
2022-12-01T11:08:52.048Z,101121.94
2022-12-01T11:11:57.743Z,101114.00
2022-12-01T11:15:01.645Z,101115.91
2022-12-01T11:18:19.612Z,101111.44
2022-12-01T11:21:28.022Z,101097.47
2022-12-01T11:24:44.327Z,101105.25
2022-12-01T11:28:01.864Z,101089.22
2022-12-01T11:31:13.622Z,101097.22
2022-12-01T11:34:25.918Z,101088.88
2022-12-01T11:37:37.311Z,101088.72
2022-12-01T11:40:51.051Z,101085.38
2022-12-01T11:44:01.619Z,101090.56
2022-12-01T11:47:23.189Z,101090.41
2022-12-01T11:50:31.031Z,101087.53
2022-12-01T11:53:44.388Z,101081.56
2022-12-01T11:56:56.062Z,101085.81
2022-12-01T12:00:18.190Z,101083.34
2022-12-01T12:03:41.303Z,101081.19
2022-12-01T12:06:49.842Z,101081.44
2022-12-01T12:10:14.363Z,101082.88
2022-12-01T12:13:30.806Z,101088.41
2022-12-01T12:17:04.322Z,101073.03
2022-12-01T12:20:27.810Z,101077.37
2022-12-01T12:23:36.794Z,101072.19
2022-12-01T12:26:42.663Z,101076.47
2022-12-01T12:30:26.173Z,101069.22
2022-12-01T12:34:15.461Z,101071.91
2022-12-01T12:37:25.123Z,101073.75
2022-12-01T12:40:53.196Z,101070.56
2022-12-01T12:43:58.755Z,101077.44
2022-12-01T12:47:22.332Z,101073.50
2022-12-01T12:50:48.221Z,101065.88
2022-12-01T12:53:59.923Z,101071.72
2022-12-01T12:57:19.509Z,101070.63
2022-12-01T13:00:26.286Z,101069.25
2022-12-01T13:03:51.587Z,101066.12
2022-12-01T13:07:30.580Z,101074.50
2022-12-01T13:10:58.230Z,101071.31
2022-12-01T13:14:11.755Z,101062.38
2022-12-01T13:17:32.158Z,101060.03
2022-12-01T13:20:35.566Z,101052.38
2022-12-01T13:23:42.934Z,101045.44
2022-12-01T13:26:50.115Z,101049.00
2022-12-01T13:29:54.917Z,101057.84
2022-12-01T13:33:04.507Z,101053.38
2022-12-01T13:36:44.979Z,101049.00
2022-12-01T13:39:40.474Z,101054.00
2022-12-01T13:42:51.643Z,101063.00
2022-12-01T13:46:03.734Z,101055.75
2022-12-01T13:49:35.055Z,101055.88
2022-12-01T13:52:48.818Z,101061.72
2022-12-01T13:56:03.808Z,101056.31
2022-12-01T13:59:40.424Z,101059.50
2022-12-01T14:02:43.888Z,101056.72
2022-12-01T14:05:53.271Z,101056.63
2022-12-01T14:09:02.709Z,101056.19
2022-12-01T14:12:11.692Z,101055.81
2022-12-01T14:15:29.084Z,101064.03
2022-12-01T14:18:45.113Z,101056.72
2022-12-01T14:21:49.711Z,101052.56
2022-12-01T14:24:53.319Z,101051.13
2022-12-01T14:27:57.754Z,101045.44
2022-12-01T14:31:06.355Z,101043.25
2022-12-01T14:34:19.341Z,101049.84
2022-12-01T14:37:27.538Z,101047.63
2022-12-01T14:40:30.441Z,101043.63
2022-12-01T14:43:51.639Z,101050.00
2022-12-01T14:47:19.773Z,101046.06
2022-12-01T14:50:31.901Z,101040.31
2022-12-01T14:53:40.815Z,101043.28
2022-12-01T14:56:46.958Z,101052.16
2022-12-01T15:00:05.102Z,101050.63
2022-12-01T15:03:13.187Z,101051.63
2022-12-01T15:06:21.542Z,101054.37
2022-12-01T15:09:33.348Z,101061.38
2022-12-01T15:12:37.160Z,101057.91
2022-12-01T15:15:53.793Z,101056.94
2022-12-01T15:18:58.618Z,101045.62
2022-12-01T15:22:13.521Z,101062.16
2022-12-01T15:25:16.090Z,101050.97
2022-12-01T15:28:33.473Z,101053.75
2022-12-01T15:31:36.355Z,101060.72
2022-12-01T15:34:45.485Z,101063.38
2022-12-01T15:37:49.083Z,101054.75
2022-12-01T15:41:27.899Z,101057.34
2022-12-01T15:44:42.163Z,101052.12
2022-12-01T15:47:48.900Z,101058.22
2022-12-01T15:51:07.233Z,101060.87
2022-12-01T15:54:22.653Z,101058.22
2022-12-01T15:57:25.302Z,101060.87
2022-12-01T16:00:28.963Z,101061.81
2022-12-01T16:03:37.009Z,101057.56
2022-12-01T16:06:40.628Z,101064.56
2022-12-01T16:09:57.909Z,101067.16
2022-12-01T16:13:38.429Z,101066.28
2022-12-01T16:16:46.986Z,101066.44
2022-12-01T16:20:15.104Z,101057.00
2022-12-01T16:23:25.566Z,101057.91
2022-12-01T16:26:29.724Z,101069.31
2022-12-01T16:29:58.260Z,101071.09
2022-12-01T16:33:03.451Z,101067.69
